Indianola, Utah
Current Conditions -  °F | °C
As of 1:35 AM on Friday 24 Oct 2014 (Local Time) from KPVU Reporting Station
Clear Clear  
Wind Chill: 50°   Ceiling: Unl
Heat Index: 50°   Visibility: 10mi
Dew Point: 28°   Wind: 6mph
Humidity: 43%   Direction: 140°SE
Pressure: 30.14"   Gusts: NA
Location:  39.7497°N, 111.442°W
Report Text: KPVU 240735Z AUTO 14005KT 10SM CLR 10/M02 A3014 RMK AO1
Loading
Personal Weather Stations






























Interactive Weather Map
Tropical Storm Tracking
New forecast layout! Learn more

10-Day Weather Forecast

Advertisements
Track Severe Weather on mobile